sensor_id;sensor_type;location;lat;lon;timestamp;P1;durP1;ratioP1;P2;durP2;ratioP2
34805;SDS011;65084;42.196;25.326;2023-04-24T00:01:12;12.35;;;4.15;;
34805;SDS011;65084;42.196;25.326;2023-04-24T00:03:40;14.18;;;3.80;;
34805;SDS011;65084;42.196;25.326;2023-04-24T00:06:07;13.75;;;4.40;;
34805;SDS011;65084;42.196;25.326;2023-04-24T00:08:34;10.40;;;4.18;;
34805;SDS011;65084;42.196;25.326;2023-04-24T00:11:03;6.25;;;3.50;;
34805;SDS011;65084;42.196;25.326;2023-04-24T00:13:31;7.07;;;4.03;;
34805;SDS011;65084;42.196;25.326;2023-04-24T00:15:58;9.35;;;4.22;;
34805;SDS011;65084;42.196;25.326;2023-04-24T00:18:25;9.63;;;3.78;;
34805;SDS011;65084;42.196;25.326;2023-04-24T00:20:52;7.18;;;3.75;;
34805;SDS011;65084;42.196;25.326;2023-04-24T00:23:20;8.52;;;3.83;;
34805;SDS011;65084;42.196;25.326;2023-04-24T00:25:47;7.80;;;4.15;;
34805;SDS011;65084;42.196;25.326;2023-04-24T00:28:15;9.13;;;4.05;;
34805;SDS011;65084;42.196;25.326;2023-04-24T00:30:43;4.50;;;3.42;;
34805;SDS011;65084;42.196;25.326;2023-04-24T00:33:10;7.47;;;4.10;;
34805;SDS011;65084;42.196;25.326;2023-04-24T00:35:38;5.00;;;3.33;;
34805;SDS011;65084;42.196;25.326;2023-04-24T00:38:05;7.68;;;4.20;;
34805;SDS011;65084;42.196;25.326;2023-04-24T00:40:32;7.15;;;4.40;;
34805;SDS011;65084;42.196;25.326;2023-04-24T00:42:59;7.00;;;4.00;;
34805;SDS011;65084;42.196;25.326;2023-04-24T00:45:28;5.30;;;3.80;;
34805;SDS011;65084;42.196;25.326;2023-04-24T00:47:56;11.27;;;4.80;;
34805;SDS011;65084;42.196;25.326;2023-04-24T00:50:24;7.38;;;4.10;;
34805;SDS011;65084;42.196;25.326;2023-04-24T00:52:51;10.75;;;3.97;;
34805;SDS011;65084;42.196;25.326;2023-04-24T00:55:19;7.13;;;3.78;;
34805;SDS011;65084;42.196;25.326;2023-04-24T00:57:46;6.85;;;4.20;;
34805;SDS011;65084;42.196;25.326;2023-04-24T01:00:14;6.22;;;4.05;;
34805;SDS011;65084;42.196;25.326;2023-04-24T01:02:44;6.38;;;3.70;;
34805;SDS011;65084;42.196;25.326;2023-04-24T01:05:11;9.00;;;3.90;;
34805;SDS011;65084;42.196;25.326;2023-04-24T01:07:40;9.85;;;4.18;;
34805;SDS011;65084;42.196;25.326;2023-04-24T01:10:09;6.10;;;3.80;;
34805;SDS011;65084;42.196;25.326;2023-04-24T01:12:37;6.90;;;3.88;;
34805;SDS011;65084;42.196;25.326;2023-04-24T01:15:04;7.93;;;4.50;;
34805;SDS011;65084;42.196;25.326;2023-04-24T01:17:32;8.07;;;3.92;;
34805;SDS011;65084;42.196;25.326;2023-04-24T01:20:01;11.00;;;4.22;;
34805;SDS011;65084;42.196;25.326;2023-04-24T01:22:32;6.80;;;4.30;;
34805;SDS011;65084;42.196;25.326;2023-04-24T01:25:00;6.40;;;3.67;;
34805;SDS011;65084;42.196;25.326;2023-04-24T01:27:28;9.93;;;4.38;;
34805;SDS011;65084;42.196;25.326;2023-04-24T01:29:55;9.50;;;4.30;;
34805;SDS011;65084;42.196;25.326;2023-04-24T01:32:22;8.10;;;4.35;;
34805;SDS011;65084;42.196;25.326;2023-04-24T01:34:50;9.32;;;5.13;;
34805;SDS011;65084;42.196;25.326;2023-04-24T01:37:18;8.38;;;4.50;;
34805;SDS011;65084;42.196;25.326;2023-04-24T01:39:46;11.88;;;4.90;;
34805;SDS011;65084;42.196;25.326;2023-04-24T01:42:14;12.45;;;4.30;;
34805;SDS011;65084;42.196;25.326;2023-04-24T01:44:41;5.47;;;4.00;;
34805;SDS011;65084;42.196;25.326;2023-04-24T01:47:09;9.75;;;4.75;;
34805;SDS011;65084;42.196;25.326;2023-04-24T01:49:37;7.15;;;4.90;;
34805;SDS011;65084;42.196;25.326;2023-04-24T01:52:05;9.75;;;4.93;;
34805;SDS011;65084;42.196;25.326;2023-04-24T01:54:32;6.95;;;4.00;;
34805;SDS011;65084;42.196;25.326;2023-04-24T01:57:01;9.52;;;4.65;;
34805;SDS011;65084;42.196;25.326;2023-04-24T01:59:28;8.40;;;4.20;;
34805;SDS011;65084;42.196;25.326;2023-04-24T02:01:56;10.18;;;4.45;;
34805;SDS011;65084;42.196;25.326;2023-04-24T02:04:24;13.27;;;4.15;;
34805;SDS011;65084;42.196;25.326;2023-04-24T02:06:51;10.95;;;4.38;;
34805;SDS011;65084;42.196;25.326;2023-04-24T02:09:18;4.53;;;4.10;;
34805;SDS011;65084;42.196;25.326;2023-04-24T02:11:46;17.02;;;4.85;;
34805;SDS011;65084;42.196;25.326;2023-04-24T02:14:14;8.25;;;4.32;;
34805;SDS011;65084;42.196;25.326;2023-04-24T02:16:42;18.77;;;4.50;;
34805;SDS011;65084;42.196;25.326;2023-04-24T02:19:09;11.02;;;4.50;;
34805;SDS011;65084;42.196;25.326;2023-04-24T02:21:36;12.45;;;4.20;;
34805;SDS011;65084;42.196;25.326;2023-04-24T02:24:04;11.05;;;4.75;;
34805;SDS011;65084;42.196;25.326;2023-04-24T02:26:31;9.52;;;4.43;;
34805;SDS011;65084;42.196;25.326;2023-04-24T02:28:58;9.95;;;4.85;;
34805;SDS011;65084;42.196;25.326;2023-04-24T02:31:27;11.70;;;4.70;;
34805;SDS011;65084;42.196;25.326;2023-04-24T02:33:54;5.13;;;4.30;;
34805;SDS011;65084;42.196;25.326;2023-04-24T02:36:21;9.68;;;4.60;;
34805;SDS011;65084;42.196;25.326;2023-04-24T02:38:49;13.00;;;5.10;;
34805;SDS011;65084;42.196;25.326;2023-04-24T02:41:16;8.77;;;5.10;;
34805;SDS011;65084;42.196;25.326;2023-04-24T02:43:43;11.55;;;5.50;;
34805;SDS011;65084;42.196;25.326;2023-04-24T02:46:11;10.60;;;4.60;;
34805;SDS011;65084;42.196;25.326;2023-04-24T02:48:39;8.90;;;4.80;;
34805;SDS011;65084;42.196;25.326;2023-04-24T02:51:07;15.75;;;4.60;;
34805;SDS011;65084;42.196;25.326;2023-04-24T02:53:34;8.38;;;5.22;;
34805;SDS011;65084;42.196;25.326;2023-04-24T02:56:02;8.57;;;4.95;;
34805;SDS011;65084;42.196;25.326;2023-04-24T02:58:29;11.82;;;4.53;;
34805;SDS011;65084;42.196;25.326;2023-04-24T03:00:57;8.63;;;5.15;;
34805;SDS011;65084;42.196;25.326;2023-04-24T03:03:24;7.03;;;5.20;;
34805;SDS011;65084;42.196;25.326;2023-04-24T03:05:53;15.85;;;5.15;;
34805;SDS011;65084;42.196;25.326;2023-04-24T03:08:20;5.72;;;5.20;;
34805;SDS011;65084;42.196;25.326;2023-04-24T03:10:47;11.32;;;5.20;;
34805;SDS011;65084;42.196;25.326;2023-04-24T03:13:15;7.32;;;4.65;;
34805;SDS011;65084;42.196;25.326;2023-04-24T03:15:42;11.27;;;5.22;;
34805;SDS011;65084;42.196;25.326;2023-04-24T03:18:10;10.45;;;6.07;;
34805;SDS011;65084;42.196;25.326;2023-04-24T03:20:37;13.55;;;5.82;;
34805;SDS011;65084;42.196;25.326;2023-04-24T03:23:05;39.85;;;8.13;;
34805;SDS011;65084;42.196;25.326;2023-04-24T03:25:33;11.82;;;5.82;;
34805;SDS011;65084;42.196;25.326;2023-04-24T03:28:00;27.90;;;5.53;;
34805;SDS011;65084;42.196;25.326;2023-04-24T03:30:27;14.13;;;6.43;;
34805;SDS011;65084;42.196;25.326;2023-04-24T03:32:55;8.57;;;6.18;;
34805;SDS011;65084;42.196;25.326;2023-04-24T03:35:22;17.15;;;5.82;;
34805;SDS011;65084;42.196;25.326;2023-04-24T03:37:50;11.02;;;5.38;;
34805;SDS011;65084;42.196;25.326;2023-04-24T03:40:18;21.48;;;5.97;;
34805;SDS011;65084;42.196;25.326;2023-04-24T03:42:46;13.50;;;7.20;;
34805;SDS011;65084;42.196;25.326;2023-04-24T03:45:13;15.25;;;7.18;;
34805;SDS011;65084;42.196;25.326;2023-04-24T03:47:40;10.38;;;6.28;;
34805;SDS011;65084;42.196;25.326;2023-04-24T03:50:08;25.35;;;7.13;;
34805;SDS011;65084;42.196;25.326;2023-04-24T03:52:35;16.05;;;6.50;;
34805;SDS011;65084;42.196;25.326;2023-04-24T03:55:03;13.35;;;7.55;;
34805;SDS011;65084;42.196;25.326;2023-04-24T03:57:32;18.92;;;8.07;;
34805;SDS011;65084;42.196;25.326;2023-04-24T04:00:00;19.33;;;7.30;;
34805;SDS011;65084;42.196;25.326;2023-04-24T04:02:31;15.75;;;6.10;;
34805;SDS011;65084;42.196;25.326;2023-04-24T04:04:58;17.33;;;6.03;;
34805;SDS011;65084;42.196;25.326;2023-04-24T04:07:25;13.00;;;5.93;;
34805;SDS011;65084;42.196;25.326;2023-04-24T04:09:54;16.85;;;5.85;;
34805;SDS011;65084;42.196;25.326;2023-04-24T04:12:22;18.83;;;6.22;;
34805;SDS011;65084;42.196;25.326;2023-04-24T04:14:50;9.98;;;5.60;;
34805;SDS011;65084;42.196;25.326;2023-04-24T04:17:18;17.27;;;5.45;;
34805;SDS011;65084;42.196;25.326;2023-04-24T04:19:45;14.85;;;5.88;;
34805;SDS011;65084;42.196;25.326;2023-04-24T04:22:12;7.70;;;5.72;;
34805;SDS011;65084;42.196;25.326;2023-04-24T04:24:39;16.23;;;6.43;;
34805;SDS011;65084;42.196;25.326;2023-04-24T04:27:08;14.52;;;6.10;;
34805;SDS011;65084;42.196;25.326;2023-04-24T04:29:36;11.43;;;5.88;;
34805;SDS011;65084;42.196;25.326;2023-04-24T04:32:05;11.70;;;5.32;;
34805;SDS011;65084;42.196;25.326;2023-04-24T04:34:32;7.55;;;5.45;;
34805;SDS011;65084;42.196;25.326;2023-04-24T04:36:59;8.93;;;5.25;;
34805;SDS011;65084;42.196;25.326;2023-04-24T04:39:27;15.48;;;5.30;;
34805;SDS011;65084;42.196;25.326;2023-04-24T04:41:55;8.35;;;5.28;;
34805;SDS011;65084;42.196;25.326;2023-04-24T04:44:23;9.75;;;5.78;;
34805;SDS011;65084;42.196;25.326;2023-04-24T04:46:52;12.77;;;5.57;;
34805;SDS011;65084;42.196;25.326;2023-04-24T04:49:22;9.15;;;6.07;;
34805;SDS011;65084;42.196;25.326;2023-04-24T04:51:50;20.67;;;5.95;;
34805;SDS011;65084;42.196;25.326;2023-04-24T04:54:18;11.25;;;6.07;;
34805;SDS011;65084;42.196;25.326;2023-04-24T04:56:45;18.08;;;7.13;;
34805;SDS011;65084;42.196;25.326;2023-04-24T04:59:12;14.68;;;6.90;;
34805;SDS011;65084;42.196;25.326;2023-04-24T05:01:40;18.13;;;8.10;;
34805;SDS011;65084;42.196;25.326;2023-04-24T05:04:07;12.02;;;7.25;;
34805;SDS011;65084;42.196;25.326;2023-04-24T05:06:35;16.98;;;8.15;;
34805;SDS011;65084;42.196;25.326;2023-04-24T05:09:03;12.27;;;7.05;;
34805;SDS011;65084;42.196;25.326;2023-04-24T05:11:30;15.02;;;6.55;;
34805;SDS011;65084;42.196;25.326;2023-04-24T05:13:57;15.63;;;6.57;;
34805;SDS011;65084;42.196;25.326;2023-04-24T05:16:25;8.27;;;5.72;;
34805;SDS011;65084;42.196;25.326;2023-04-24T05:18:52;10.30;;;5.55;;
34805;SDS011;65084;42.196;25.326;2023-04-24T05:21:19;13.20;;;6.63;;
34805;SDS011;65084;42.196;25.326;2023-04-24T05:23:48;12.98;;;5.88;;
34805;SDS011;65084;42.196;25.326;2023-04-24T05:26:15;19.02;;;6.03;;
34805;SDS011;65084;42.196;25.326;2023-04-24T05:28:43;12.30;;;6.22;;
34805;SDS011;65084;42.196;25.326;2023-04-24T05:31:10;17.17;;;6.47;;
34805;SDS011;65084;42.196;25.326;2023-04-24T05:33:38;18.38;;;6.00;;
34805;SDS011;65084;42.196;25.326;2023-04-24T05:36:06;12.13;;;5.90;;
34805;SDS011;65084;42.196;25.326;2023-04-24T05:38:33;10.13;;;5.72;;
34805;SDS011;65084;42.196;25.326;2023-04-24T05:41:02;13.07;;;5.38;;
34805;SDS011;65084;42.196;25.326;2023-04-24T05:43:29;6.13;;;4.88;;
34805;SDS011;65084;42.196;25.326;2023-04-24T05:45:57;11.73;;;6.13;;
34805;SDS011;65084;42.196;25.326;2023-04-24T05:48:24;18.23;;;6.30;;
34805;SDS011;65084;42.196;25.326;2023-04-24T05:50:51;6.60;;;5.55;;
34805;SDS011;65084;42.196;25.326;2023-04-24T05:53:19;11.20;;;5.47;;
34805;SDS011;65084;42.196;25.326;2023-04-24T05:55:46;10.90;;;5.80;;
34805;SDS011;65084;42.196;25.326;2023-04-24T05:58:16;14.48;;;5.97;;
34805;SDS011;65084;42.196;25.326;2023-04-24T06:00:43;11.80;;;5.63;;
34805;SDS011;65084;42.196;25.326;2023-04-24T06:03:11;7.72;;;5.50;;
34805;SDS011;65084;42.196;25.326;2023-04-24T06:05:39;12.50;;;5.43;;
34805;SDS011;65084;42.196;25.326;2023-04-24T06:08:06;14.55;;;5.78;;
34805;SDS011;65084;42.196;25.326;2023-04-24T06:10:34;16.05;;;6.25;;
34805;SDS011;65084;42.196;25.326;2023-04-24T06:13:01;11.57;;;6.28;;
34805;SDS011;65084;42.196;25.326;2023-04-24T06:15:30;14.20;;;6.22;;
34805;SDS011;65084;42.196;25.326;2023-04-24T06:17:57;12.82;;;5.70;;
34805;SDS011;65084;42.196;25.326;2023-04-24T06:20:25;10.82;;;5.57;;
34805;SDS011;65084;42.196;25.326;2023-04-24T06:22:52;11.90;;;6.18;;
34805;SDS011;65084;42.196;25.326;2023-04-24T06:25:20;13.68;;;6.20;;
34805;SDS011;65084;42.196;25.326;2023-04-24T06:27:47;13.93;;;6.50;;
34805;SDS011;65084;42.196;25.326;2023-04-24T06:30:14;12.43;;;5.63;;
34805;SDS011;65084;42.196;25.326;2023-04-24T06:32:43;13.35;;;6.03;;
34805;SDS011;65084;42.196;25.326;2023-04-24T06:35:10;14.57;;;6.57;;
34805;SDS011;65084;42.196;25.326;2023-04-24T06:37:38;13.68;;;5.80;;
34805;SDS011;65084;42.196;25.326;2023-04-24T06:40:06;11.55;;;6.30;;
34805;SDS011;65084;42.196;25.326;2023-04-24T06:42:33;12.63;;;6.00;;
34805;SDS011;65084;42.196;25.326;2023-04-24T06:45:01;10.43;;;5.88;;
34805;SDS011;65084;42.196;25.326;2023-04-24T06:47:28;13.23;;;5.97;;
34805;SDS011;65084;42.196;25.326;2023-04-24T06:49:57;8.73;;;5.60;;
34805;SDS011;65084;42.196;25.326;2023-04-24T06:52:24;11.85;;;5.93;;
34805;SDS011;65084;42.196;25.326;2023-04-24T06:54:51;8.43;;;6.05;;
34805;SDS011;65084;42.196;25.326;2023-04-24T06:57:19;9.80;;;6.05;;
34805;SDS011;65084;42.196;25.326;2023-04-24T06:59:46;11.07;;;6.32;;
34805;SDS011;65084;42.196;25.326;2023-04-24T07:02:13;8.48;;;7.45;;
34805;SDS011;65084;42.196;25.326;2023-04-24T07:04:40;14.50;;;6.70;;
34805;SDS011;65084;42.196;25.326;2023-04-24T07:07:09;8.30;;;6.43;;
34805;SDS011;65084;42.196;25.326;2023-04-24T07:09:39;9.30;;;6.63;;
34805;SDS011;65084;42.196;25.326;2023-04-24T07:12:07;12.43;;;6.85;;
34805;SDS011;65084;42.196;25.326;2023-04-24T07:14:35;8.23;;;6.55;;
34805;SDS011;65084;42.196;25.326;2023-04-24T07:17:03;14.13;;;7.13;;
34805;SDS011;65084;42.196;25.326;2023-04-24T07:19:30;9.93;;;7.03;;
34805;SDS011;65084;42.196;25.326;2023-04-24T07:21:57;14.27;;;7.32;;
34805;SDS011;65084;42.196;25.326;2023-04-24T07:24:26;7.55;;;6.30;;
34805;SDS011;65084;42.196;25.326;2023-04-24T07:26:53;9.70;;;6.28;;
34805;SDS011;65084;42.196;25.326;2023-04-24T07:29:22;16.23;;;6.10;;
34805;SDS011;65084;42.196;25.326;2023-04-24T07:31:49;12.30;;;6.78;;
34805;SDS011;65084;42.196;25.326;2023-04-24T07:34:16;9.85;;;6.88;;
34805;SDS011;65084;42.196;25.326;2023-04-24T07:36:43;21.92;;;7.63;;
34805;SDS011;65084;42.196;25.326;2023-04-24T07:39:11;13.00;;;5.60;;
34805;SDS011;65084;42.196;25.326;2023-04-24T07:41:39;7.28;;;6.25;;
34805;SDS011;65084;42.196;25.326;2023-04-24T07:44:07;10.10;;;6.63;;
34805;SDS011;65084;42.196;25.326;2023-04-24T07:46:34;14.80;;;6.95;;
34805;SDS011;65084;42.196;25.326;2023-04-24T07:49:01;6.80;;;6.20;;
34805;SDS011;65084;42.196;25.326;2023-04-24T07:51:29;11.52;;;7.22;;
34805;SDS011;65084;42.196;25.326;2023-04-24T07:53:57;7.50;;;6.70;;
34805;SDS011;65084;42.196;25.326;2023-04-24T07:56:24;17.50;;;6.60;;
34805;SDS011;65084;42.196;25.326;2023-04-24T07:58:53;11.35;;;7.05;;
34805;SDS011;65084;42.196;25.326;2023-04-24T08:01:20;11.48;;;6.63;;
34805;SDS011;65084;42.196;25.326;2023-04-24T08:03:48;14.88;;;6.75;;
34805;SDS011;65084;42.196;25.326;2023-04-24T08:06:15;11.73;;;7.15;;
34805;SDS011;65084;42.196;25.326;2023-04-24T08:08:42;8.38;;;6.50;;
34805;SDS011;65084;42.196;25.326;2023-04-24T08:11:10;11.65;;;5.80;;
34805;SDS011;65084;42.196;25.326;2023-04-24T08:13:37;6.35;;;5.65;;
34805;SDS011;65084;42.196;25.326;2023-04-24T08:16:06;10.48;;;6.28;;
34805;SDS011;65084;42.196;25.326;2023-04-24T08:18:33;10.05;;;5.47;;
34805;SDS011;65084;42.196;25.326;2023-04-24T08:21:01;12.75;;;7.50;;
34805;SDS011;65084;42.196;25.326;2023-04-24T08:23:28;8.95;;;5.75;;
34805;SDS011;65084;42.196;25.326;2023-04-24T08:25:55;9.45;;;5.90;;
34805;SDS011;65084;42.196;25.326;2023-04-24T08:28:23;9.40;;;6.93;;
34805;SDS011;65084;42.196;25.326;2023-04-24T08:30:51;7.63;;;5.72;;
34805;SDS011;65084;42.196;25.326;2023-04-24T08:33:21;12.70;;;6.00;;
34805;SDS011;65084;42.196;25.326;2023-04-24T08:35:48;11.32;;;5.10;;
34805;SDS011;65084;42.196;25.326;2023-04-24T08:38:15;10.23;;;5.28;;
34805;SDS011;65084;42.196;25.326;2023-04-24T08:40:43;9.50;;;5.65;;
34805;SDS011;65084;42.196;25.326;2023-04-24T08:43:13;15.93;;;6.15;;
34805;SDS011;65084;42.196;25.326;2023-04-24T08:45:42;7.50;;;4.53;;
34805;SDS011;65084;42.196;25.326;2023-04-24T08:48:09;5.68;;;4.95;;
34805;SDS011;65084;42.196;25.326;2023-04-24T08:50:38;8.68;;;5.10;;
34805;SDS011;65084;42.196;25.326;2023-04-24T08:53:06;7.22;;;4.97;;
34805;SDS011;65084;42.196;25.326;2023-04-24T08:55:34;7.88;;;5.53;;
34805;SDS011;65084;42.196;25.326;2023-04-24T08:58:02;18.13;;;5.78;;
34805;SDS011;65084;42.196;25.326;2023-04-24T09:00:30;8.25;;;5.85;;
34805;SDS011;65084;42.196;25.326;2023-04-24T09:03:00;5.40;;;4.90;;
34805;SDS011;65084;42.196;25.326;2023-04-24T09:05:27;15.52;;;5.47;;
34805;SDS011;65084;42.196;25.326;2023-04-24T09:07:56;13.13;;;5.13;;
34805;SDS011;65084;42.196;25.326;2023-04-24T09:10:24;8.00;;;4.72;;
34805;SDS011;65084;42.196;25.326;2023-04-24T09:12:51;6.13;;;4.60;;
34805;SDS011;65084;42.196;25.326;2023-04-24T09:15:20;11.13;;;5.10;;
34805;SDS011;65084;42.196;25.326;2023-04-24T09:17:47;7.22;;;4.75;;
34805;SDS011;65084;42.196;25.326;2023-04-24T09:20:15;6.00;;;5.32;;
34805;SDS011;65084;42.196;25.326;2023-04-24T09:22:42;9.07;;;4.22;;
34805;SDS011;65084;42.196;25.326;2023-04-24T09:25:11;8.20;;;4.63;;
34805;SDS011;65084;42.196;25.326;2023-04-24T09:27:41;9.10;;;4.60;;
34805;SDS011;65084;42.196;25.326;2023-04-24T09:30:10;9.68;;;5.40;;
34805;SDS011;65084;42.196;25.326;2023-04-24T09:32:37;6.43;;;5.10;;
34805;SDS011;65084;42.196;25.326;2023-04-24T09:35:05;7.45;;;4.97;;
34805;SDS011;65084;42.196;25.326;2023-04-24T09:37:34;5.70;;;4.50;;
34805;SDS011;65084;42.196;25.326;2023-04-24T09:40:16;8.32;;;4.30;;
34805;SDS011;65084;42.196;25.326;2023-04-24T09:42:44;7.88;;;4.50;;
34805;SDS011;65084;42.196;25.326;2023-04-24T09:45:12;8.48;;;4.80;;
34805;SDS011;65084;42.196;25.326;2023-04-24T09:47:40;5.70;;;3.97;;
34805;SDS011;65084;42.196;25.326;2023-04-24T09:50:11;7.03;;;4.63;;
34805;SDS011;65084;42.196;25.326;2023-04-24T09:52:39;8.63;;;4.85;;
34805;SDS011;65084;42.196;25.326;2023-04-24T09:55:11;5.78;;;4.47;;
34805;SDS011;65084;42.196;25.326;2023-04-24T09:57:47;9.27;;;4.82;;
34805;SDS011;65084;42.196;25.326;2023-04-24T10:00:17;4.43;;;3.78;;
34805;SDS011;65084;42.196;25.326;2023-04-24T10:02:49;4.43;;;4.03;;
34805;SDS011;65084;42.196;25.326;2023-04-24T10:05:17;9.75;;;4.53;;
34805;SDS011;65084;42.196;25.326;2023-04-24T10:07:44;7.65;;;4.55;;
34805;SDS011;65084;42.196;25.326;2023-04-24T10:10:12;9.50;;;4.50;;
34805;SDS011;65084;42.196;25.326;2023-04-24T10:12:39;8.50;;;4.18;;
34805;SDS011;65084;42.196;25.326;2023-04-24T10:15:09;5.90;;;4.90;;
34805;SDS011;65084;42.196;25.326;2023-04-24T10:17:39;10.07;;;5.50;;
34805;SDS011;65084;42.196;25.326;2023-04-24T10:20:06;7.70;;;6.30;;
34805;SDS011;65084;42.196;25.326;2023-04-24T10:22:34;14.05;;;9.88;;
34805;SDS011;65084;42.196;25.326;2023-04-24T10:25:03;7.35;;;6.53;;
34805;SDS011;65084;42.196;25.326;2023-04-24T10:27:31;6.88;;;5.00;;
34805;SDS011;65084;42.196;25.326;2023-04-24T10:29:59;12.00;;;5.05;;
34805;SDS011;65084;42.196;25.326;2023-04-24T10:32:28;5.68;;;4.72;;
34805;SDS011;65084;42.196;25.326;2023-04-24T10:34:56;7.05;;;6.00;;
34805;SDS011;65084;42.196;25.326;2023-04-24T10:37:23;5.20;;;4.70;;
34805;SDS011;65084;42.196;25.326;2023-04-24T10:39:51;24.85;;;18.65;;
34805;SDS011;65084;42.196;25.326;2023-04-24T10:42:19;20.65;;;17.38;;
34805;SDS011;65084;42.196;25.326;2023-04-24T10:44:47;16.45;;;14.23;;
34805;SDS011;65084;42.196;25.326;2023-04-24T10:47:15;9.18;;;5.03;;
34805;SDS011;65084;42.196;25.326;2023-04-24T10:49:44;7.68;;;6.28;;
34805;SDS011;65084;42.196;25.326;2023-04-24T10:52:11;9.20;;;4.50;;
34805;SDS011;65084;42.196;25.326;2023-04-24T10:54:41;10.80;;;9.02;;
34805;SDS011;65084;42.196;25.326;2023-04-24T10:57:27;14.90;;;9.93;;
34805;SDS011;65084;42.196;25.326;2023-04-24T11:00:15;10.18;;;6.60;;
34805;SDS011;65084;42.196;25.326;2023-04-24T11:02:45;8.15;;;5.13;;
34805;SDS011;65084;42.196;25.326;2023-04-24T11:05:16;5.85;;;4.78;;
34805;SDS011;65084;42.196;25.326;2023-04-24T11:10:30;5.05;;;4.30;;
34805;SDS011;65084;42.196;25.326;2023-04-24T11:12:57;9.27;;;4.95;;
34805;SDS011;65084;42.196;25.326;2023-04-24T11:15:24;7.22;;;4.07;;
34805;SDS011;65084;42.196;25.326;2023-04-24T11:17:51;4.72;;;4.30;;
34805;SDS011;65084;42.196;25.326;2023-04-24T11:20:25;9.38;;;5.03;;
34805;SDS011;65084;42.196;25.326;2023-04-24T11:22:52;8.45;;;4.75;;
34805;SDS011;65084;42.196;25.326;2023-04-24T11:25:22;6.88;;;4.25;;
34805;SDS011;65084;42.196;25.326;2023-04-24T11:27:50;13.63;;;4.38;;
34805;SDS011;65084;42.196;25.326;2023-04-24T11:30:17;12.05;;;4.82;;
34805;SDS011;65084;42.196;25.326;2023-04-24T11:32:47;6.65;;;5.18;;
34805;SDS011;65084;42.196;25.326;2023-04-24T11:35:15;8.52;;;4.60;;
34805;SDS011;65084;42.196;25.326;2023-04-24T11:37:46;4.65;;;4.25;;
34805;SDS011;65084;42.196;25.326;2023-04-24T11:40:14;8.18;;;4.75;;
34805;SDS011;65084;42.196;25.326;2023-04-24T11:42:42;6.10;;;4.07;;
34805;SDS011;65084;42.196;25.326;2023-04-24T11:45:11;10.60;;;5.10;;
34805;SDS011;65084;42.196;25.326;2023-04-24T11:47:38;5.55;;;4.43;;
34805;SDS011;65084;42.196;25.326;2023-04-24T11:50:06;10.85;;;4.88;;
34805;SDS011;65084;42.196;25.326;2023-04-24T11:52:36;7.80;;;5.68;;
34805;SDS011;65084;42.196;25.326;2023-04-24T11:55:05;5.82;;;4.57;;
34805;SDS011;65084;42.196;25.326;2023-04-24T11:57:33;7.47;;;4.85;;
34805;SDS011;65084;42.196;25.326;2023-04-24T12:00:01;10.45;;;4.50;;
34805;SDS011;65084;42.196;25.326;2023-04-24T12:02:29;6.97;;;5.35;;
34805;SDS011;65084;42.196;25.326;2023-04-24T12:04:57;7.35;;;5.40;;
34805;SDS011;65084;42.196;25.326;2023-04-24T12:07:24;8.52;;;4.60;;
34805;SDS011;65084;42.196;25.326;2023-04-24T12:09:55;12.52;;;5.15;;
34805;SDS011;65084;42.196;25.326;2023-04-24T12:12:25;5.43;;;4.35;;
34805;SDS011;65084;42.196;25.326;2023-04-24T12:14:54;5.63;;;4.15;;
34805;SDS011;65084;42.196;25.326;2023-04-24T12:17:25;9.10;;;4.25;;
34805;SDS011;65084;42.196;25.326;2023-04-24T12:19:56;7.32;;;4.30;;
34805;SDS011;65084;42.196;25.326;2023-04-24T12:22:24;7.72;;;4.50;;
34805;SDS011;65084;42.196;25.326;2023-04-24T12:24:57;5.20;;;4.70;;
34805;SDS011;65084;42.196;25.326;2023-04-24T12:27:28;4.82;;;4.47;;
34805;SDS011;65084;42.196;25.326;2023-04-24T12:29:55;11.40;;;8.10;;
34805;SDS011;65084;42.196;25.326;2023-04-24T12:32:23;7.28;;;4.38;;
34805;SDS011;65084;42.196;25.326;2023-04-24T12:34:51;6.93;;;4.40;;
34805;SDS011;65084;42.196;25.326;2023-04-24T12:37:18;5.57;;;5.03;;
34805;SDS011;65084;42.196;25.326;2023-04-24T12:40:01;9.60;;;4.40;;
34805;SDS011;65084;42.196;25.326;2023-04-24T12:42:30;6.93;;;3.95;;
34805;SDS011;65084;42.196;25.326;2023-04-24T12:44:58;8.25;;;3.90;;
34805;SDS011;65084;42.196;25.326;2023-04-24T12:47:26;4.88;;;4.38;;
34805;SDS011;65084;42.196;25.326;2023-04-24T12:49:53;7.13;;;4.30;;
34805;SDS011;65084;42.196;25.326;2023-04-24T12:52:21;11.68;;;4.30;;
34805;SDS011;65084;42.196;25.326;2023-04-24T12:54:49;7.25;;;4.30;;
34805;SDS011;65084;42.196;25.326;2023-04-24T12:57:17;12.02;;;4.22;;
34805;SDS011;65084;42.196;25.326;2023-04-24T12:59:45;6.35;;;3.70;;
34805;SDS011;65084;42.196;25.326;2023-04-24T13:02:13;3.88;;;3.55;;
34805;SDS011;65084;42.196;25.326;2023-04-24T13:04:42;4.85;;;3.50;;
34805;SDS011;65084;42.196;25.326;2023-04-24T13:07:10;15.20;;;4.32;;
34805;SDS011;65084;42.196;25.326;2023-04-24T13:09:37;4.05;;;3.55;;
34805;SDS011;65084;42.196;25.326;2023-04-24T13:12:05;5.25;;;3.97;;
34805;SDS011;65084;42.196;25.326;2023-04-24T13:14:32;4.35;;;3.85;;
34805;SDS011;65084;42.196;25.326;2023-04-24T13:17:01;8.68;;;3.97;;
34805;SDS011;65084;42.196;25.326;2023-04-24T13:19:29;5.38;;;4.10;;
34805;SDS011;65084;42.196;25.326;2023-04-24T13:21:56;5.15;;;3.40;;
34805;SDS011;65084;42.196;25.326;2023-04-24T13:24:24;6.90;;;3.35;;
34805;SDS011;65084;42.196;25.326;2023-04-24T13:26:51;6.35;;;4.00;;
34805;SDS011;65084;42.196;25.326;2023-04-24T13:29:19;4.03;;;3.60;;
34805;SDS011;65084;42.196;25.326;2023-04-24T13:31:46;9.07;;;3.80;;
34805;SDS011;65084;42.196;25.326;2023-04-24T13:34:15;4.60;;;4.20;;
34805;SDS011;65084;42.196;25.326;2023-04-24T13:36:43;9.23;;;3.78;;
34805;SDS011;65084;42.196;25.326;2023-04-24T13:39:10;5.57;;;3.25;;
34805;SDS011;65084;42.196;25.326;2023-04-24T13:41:37;7.80;;;4.50;;
34805;SDS011;65084;42.196;25.326;2023-04-24T13:44:05;12.48;;;4.18;;
34805;SDS011;65084;42.196;25.326;2023-04-24T13:46:32;7.20;;;4.32;;
34805;SDS011;65084;42.196;25.326;2023-04-24T13:49:01;13.65;;;4.40;;
34805;SDS011;65084;42.196;25.326;2023-04-24T13:51:30;6.15;;;3.90;;
34805;SDS011;65084;42.196;25.326;2023-04-24T13:53:58;5.53;;;3.85;;
34805;SDS011;65084;42.196;25.326;2023-04-24T13:56:25;9.57;;;4.35;;
34805;SDS011;65084;42.196;25.326;2023-04-24T13:58:53;9.00;;;3.65;;
34805;SDS011;65084;42.196;25.326;2023-04-24T14:01:20;7.43;;;4.03;;
34805;SDS011;65084;42.196;25.326;2023-04-24T14:03:49;9.95;;;4.10;;
34805;SDS011;65084;42.196;25.326;2023-04-24T14:06:17;10.95;;;4.00;;
34805;SDS011;65084;42.196;25.326;2023-04-24T14:08:45;9.43;;;3.70;;
34805;SDS011;65084;42.196;25.326;2023-04-24T14:11:13;13.75;;;4.00;;
34805;SDS011;65084;42.196;25.326;2023-04-24T14:13:41;8.02;;;4.15;;
34805;SDS011;65084;42.196;25.326;2023-04-24T14:16:08;7.22;;;4.50;;
34805;SDS011;65084;42.196;25.326;2023-04-24T14:18:36;6.32;;;4.15;;
34805;SDS011;65084;42.196;25.326;2023-04-24T14:21:03;9.10;;;4.30;;
34805;SDS011;65084;42.196;25.326;2023-04-24T14:23:30;4.82;;;3.85;;
34805;SDS011;65084;42.196;25.326;2023-04-24T14:25:59;7.60;;;4.10;;
34805;SDS011;65084;42.196;25.326;2023-04-24T14:28:27;7.72;;;4.30;;
34805;SDS011;65084;42.196;25.326;2023-04-24T14:30:54;4.35;;;3.80;;
34805;SDS011;65084;42.196;25.326;2023-04-24T14:33:21;6.68;;;4.10;;
34805;SDS011;65084;42.196;25.326;2023-04-24T14:35:49;6.28;;;4.80;;